sensor_id;sensor_type;location;lat;lon;timestamp;P1;P2;P0
49708;PMS5003;35601;55.902;13.606;2023-04-03T00:01:33;3;2;
49708;PMS5003;35601;55.902;13.606;2023-04-03T00:03:58;4;4;
49708;PMS5003;35601;55.902;13.606;2023-04-03T00:06:23;5;5;
49708;PMS5003;35601;55.902;13.606;2023-04-03T00:08:49;6;6;
49708;PMS5003;35601;55.902;13.606;2023-04-03T00:11:15;4;4;
49708;PMS5003;35601;55.902;13.606;2023-04-03T00:13:40;7;4;
49708;PMS5003;35601;55.902;13.606;2023-04-03T00:16:06;5;4;
49708;PMS5003;35601;55.902;13.606;2023-04-03T00:18:31;5;3;
49708;PMS5003;35601;55.902;13.606;2023-04-03T00:20:56;10;4;
49708;PMS5003;35601;55.902;13.606;2023-04-03T00:23:22;2;2;
49708;PMS5003;35601;55.902;13.606;2023-04-03T00:25:47;3;2;
49708;PMS5003;35601;55.902;13.606;2023-04-03T00:28:13;3;3;
49708;PMS5003;35601;55.902;13.606;2023-04-03T00:30:38;3;3;
49708;PMS5003;35601;55.902;13.606;2023-04-03T00:33:03;3;2;
49708;PMS5003;35601;55.902;13.606;2023-04-03T00:35:29;2;2;
49708;PMS5003;35601;55.902;13.606;2023-04-03T00:37:56;3;2;
49708;PMS5003;35601;55.902;13.606;2023-04-03T00:40:22;5;2;
49708;PMS5003;35601;55.902;13.606;2023-04-03T00:42:46;2;2;
49708;PMS5003;35601;55.902;13.606;2023-04-03T00:47:37;3;3;
49708;PMS5003;35601;55.902;13.606;2023-04-03T00:50:02;2;2;
49708;PMS5003;35601;55.902;13.606;2023-04-03T00:52:28;7;3;
49708;PMS5003;35601;55.902;13.606;2023-04-03T00:54:54;4;3;
49708;PMS5003;35601;55.902;13.606;2023-04-03T00:57:18;3;3;
49708;PMS5003;35601;55.902;13.606;2023-04-03T00:59:46;4;4;
49708;PMS5003;35601;55.902;13.606;2023-04-03T01:02:10;7;7;
49708;PMS5003;35601;55.902;13.606;2023-04-03T01:04:35;5;5;
49708;PMS5003;35601;55.902;13.606;2023-04-03T01:07:01;6;4;
49708;PMS5003;35601;55.902;13.606;2023-04-03T01:09:27;3;3;
49708;PMS5003;35601;55.902;13.606;2023-04-03T01:11:51;7;4;
49708;PMS5003;35601;55.902;13.606;2023-04-03T01:14:18;7;7;
49708;PMS5003;35601;55.902;13.606;2023-04-03T01:19:08;9;5;
49708;PMS5003;35601;55.902;13.606;2023-04-03T01:21:40;7;7;
49708;PMS5003;35601;55.902;13.606;2023-04-03T01:24:01;3;3;
49708;PMS5003;35601;55.902;13.606;2023-04-03T01:26:24;4;4;
49708;PMS5003;35601;55.902;13.606;2023-04-03T01:28:50;2;2;
49708;PMS5003;35601;55.902;13.606;2023-04-03T01:31:18;3;3;
49708;PMS5003;35601;55.902;13.606;2023-04-03T01:33:41;3;3;
49708;PMS5003;35601;55.902;13.606;2023-04-03T01:36:06;3;3;
49708;PMS5003;35601;55.902;13.606;2023-04-03T01:38:31;2;2;
49708;PMS5003;35601;55.902;13.606;2023-04-03T01:40:57;5;3;
49708;PMS5003;35601;55.902;13.606;2023-04-03T01:43:22;1;1;
49708;PMS5003;35601;55.902;13.606;2023-04-03T01:45:48;1;1;
49708;PMS5003;35601;55.902;13.606;2023-04-03T01:48:13;2;2;
49708;PMS5003;35601;55.902;13.606;2023-04-03T01:50:39;1;1;
49708;PMS5003;35601;55.902;13.606;2023-04-03T01:53:05;2;2;
49708;PMS5003;35601;55.902;13.606;2023-04-03T01:55:30;4;3;
49708;PMS5003;35601;55.902;13.606;2023-04-03T01:57:55;2;1;
49708;PMS5003;35601;55.902;13.606;2023-04-03T02:00:21;2;2;
49708;PMS5003;35601;55.902;13.606;2023-04-03T02:02:46;1;1;
49708;PMS5003;35601;55.902;13.606;2023-04-03T02:05:12;1;1;
49708;PMS5003;35601;55.902;13.606;2023-04-03T02:07:37;1;1;
49708;PMS5003;35601;55.902;13.606;2023-04-03T02:10:03;2;2;
49708;PMS5003;35601;55.902;13.606;2023-04-03T02:12:28;2;2;
49708;PMS5003;35601;55.902;13.606;2023-04-03T02:14:55;2;2;
49708;PMS5003;35601;55.902;13.606;2023-04-03T02:17:20;1;1;
49708;PMS5003;35601;55.902;13.606;2023-04-03T02:19:45;2;2;
49708;PMS5003;35601;55.902;13.606;2023-04-03T02:22:12;4;2;
49708;PMS5003;35601;55.902;13.606;2023-04-03T02:24:36;2;2;
49708;PMS5003;35601;55.902;13.606;2023-04-03T02:27:02;3;2;
49708;PMS5003;35601;55.902;13.606;2023-04-03T02:29:27;2;2;
49708;PMS5003;35601;55.902;13.606;2023-04-03T02:31:53;1;1;
49708;PMS5003;35601;55.902;13.606;2023-04-03T02:34:18;2;1;
49708;PMS5003;35601;55.902;13.606;2023-04-03T02:36:43;2;2;
49708;PMS5003;35601;55.902;13.606;2023-04-03T02:39:09;1;1;
49708;PMS5003;35601;55.902;13.606;2023-04-03T02:41:35;1;1;
49708;PMS5003;35601;55.902;13.606;2023-04-03T02:44:00;4;2;
49708;PMS5003;35601;55.902;13.606;2023-04-03T02:46:25;3;3;
49708;PMS5003;35601;55.902;13.606;2023-04-03T02:48:51;4;2;
49708;PMS5003;35601;55.902;13.606;2023-04-03T02:51:17;1;1;
49708;PMS5003;35601;55.902;13.606;2023-04-03T02:53:42;6;2;
49708;PMS5003;35601;55.902;13.606;2023-04-03T02:56:07;2;2;
49708;PMS5003;35601;55.902;13.606;2023-04-03T02:58:33;3;3;
49708;PMS5003;35601;55.902;13.606;2023-04-03T03:00:59;3;2;
49708;PMS5003;35601;55.902;13.606;2023-04-03T03:03:25;2;2;
49708;PMS5003;35601;55.902;13.606;2023-04-03T03:05:50;3;2;
49708;PMS5003;35601;55.902;13.606;2023-04-03T03:08:15;2;2;
49708;PMS5003;35601;55.902;13.606;2023-04-03T03:10:41;3;3;
49708;PMS5003;35601;55.902;13.606;2023-04-03T03:13:06;3;2;
49708;PMS5003;35601;55.902;13.606;2023-04-03T03:15:32;4;3;
49708;PMS5003;35601;55.902;13.606;2023-04-03T03:17:57;3;2;
49708;PMS5003;35601;55.902;13.606;2023-04-03T03:20:23;1;1;
49708;PMS5003;35601;55.902;13.606;2023-04-03T03:22:48;3;2;
49708;PMS5003;35601;55.902;13.606;2023-04-03T03:25:14;2;2;
49708;PMS5003;35601;55.902;13.606;2023-04-03T03:27:39;2;2;
49708;PMS5003;35601;55.902;13.606;2023-04-03T03:30:06;1;1;
49708;PMS5003;35601;55.902;13.606;2023-04-03T03:32:30;3;1;
49708;PMS5003;35601;55.902;13.606;2023-04-03T03:34:56;1;1;
49708;PMS5003;35601;55.902;13.606;2023-04-03T03:37:21;4;2;
49708;PMS5003;35601;55.902;13.606;2023-04-03T03:39:48;3;2;
49708;PMS5003;35601;55.902;13.606;2023-04-03T03:42:13;3;3;
49708;PMS5003;35601;55.902;13.606;2023-04-03T03:44:38;2;2;
49708;PMS5003;35601;55.902;13.606;2023-04-03T03:47:04;2;2;
49708;PMS5003;35601;55.902;13.606;2023-04-03T03:49:29;3;2;
49708;PMS5003;35601;55.902;13.606;2023-04-03T03:51:55;2;2;
49708;PMS5003;35601;55.902;13.606;2023-04-03T03:54:20;9;7;
49708;PMS5003;35601;55.902;13.606;2023-04-03T03:56:45;4;1;
49708;PMS5003;35601;55.902;13.606;2023-04-03T03:59:11;19;12;
49708;PMS5003;35601;55.902;13.606;2023-04-03T04:01:36;17;15;
49708;PMS5003;35601;55.902;13.606;2023-04-03T04:04:02;19;12;
49708;PMS5003;35601;55.902;13.606;2023-04-03T04:06:28;9;8;
49708;PMS5003;35601;55.902;13.606;2023-04-03T04:08:53;11;7;
49708;PMS5003;35601;55.902;13.606;2023-04-03T04:11:18;9;7;
49708;PMS5003;35601;55.902;13.606;2023-04-03T04:13:44;15;9;
49708;PMS5003;35601;55.902;13.606;2023-04-03T04:16:09;3;3;
49708;PMS5003;35601;55.902;13.606;2023-04-03T04:18:34;3;2;
49708;PMS5003;35601;55.902;13.606;2023-04-03T04:21:02;7;4;
49708;PMS5003;35601;55.902;13.606;2023-04-03T04:23:25;3;3;
49708;PMS5003;35601;55.902;13.606;2023-04-03T04:25:51;12;9;
49708;PMS5003;35601;55.902;13.606;2023-04-03T04:28:17;28;21;
49708;PMS5003;35601;55.902;13.606;2023-04-03T04:30:42;17;11;
49708;PMS5003;35601;55.902;13.606;2023-04-03T04:33:07;20;12;
49708;PMS5003;35601;55.902;13.606;2023-04-03T04:35:34;17;9;
49708;PMS5003;35601;55.902;13.606;2023-04-03T04:37:58;8;8;
49708;PMS5003;35601;55.902;13.606;2023-04-03T04:40:23;18;8;
49708;PMS5003;35601;55.902;13.606;2023-04-03T04:42:49;24;17;
49708;PMS5003;35601;55.902;13.606;2023-04-03T04:45:15;48;34;
49708;PMS5003;35601;55.902;13.606;2023-04-03T04:47:40;35;29;
49708;PMS5003;35601;55.902;13.606;2023-04-03T04:50:05;21;19;
49708;PMS5003;35601;55.902;13.606;2023-04-03T04:52:30;47;34;
49708;PMS5003;35601;55.902;13.606;2023-04-03T04:54:55;30;20;
49708;PMS5003;35601;55.902;13.606;2023-04-03T04:57:20;28;21;
49708;PMS5003;35601;55.902;13.606;2023-04-03T04:59:46;36;24;
49708;PMS5003;35601;55.902;13.606;2023-04-03T05:02:12;34;26;
49708;PMS5003;35601;55.902;13.606;2023-04-03T05:04:37;37;29;
49708;PMS5003;35601;55.902;13.606;2023-04-03T05:07:02;26;21;
49708;PMS5003;35601;55.902;13.606;2023-04-03T05:09:27;35;29;
49708;PMS5003;35601;55.902;13.606;2023-04-03T05:11:53;31;28;
49708;PMS5003;35601;55.902;13.606;2023-04-03T05:14:18;33;27;
49708;PMS5003;35601;55.902;13.606;2023-04-03T05:16:44;25;20;
49708;PMS5003;35601;55.902;13.606;2023-04-03T05:19:10;27;20;
49708;PMS5003;35601;55.902;13.606;2023-04-03T05:21:35;16;16;
49708;PMS5003;35601;55.902;13.606;2023-04-03T05:24:01;15;12;
49708;PMS5003;35601;55.902;13.606;2023-04-03T05:26:26;174;146;
49708;PMS5003;35601;55.902;13.606;2023-04-03T05:28:51;114;100;
49708;PMS5003;35601;55.902;13.606;2023-04-03T05:31:17;46;39;
49708;PMS5003;35601;55.902;13.606;2023-04-03T05:33:42;18;16;
49708;PMS5003;35601;55.902;13.606;2023-04-03T05:36:08;11;10;
49708;PMS5003;35601;55.902;13.606;2023-04-03T05:38:33;8;8;
49708;PMS5003;35601;55.902;13.606;2023-04-03T05:40:59;3;3;
49708;PMS5003;35601;55.902;13.606;2023-04-03T05:43:24;5;4;
49708;PMS5003;35601;55.902;13.606;2023-04-03T05:45:50;4;2;
49708;PMS5003;35601;55.902;13.606;2023-04-03T05:48:15;3;2;
49708;PMS5003;35601;55.902;13.606;2023-04-03T05:50:40;4;3;
49708;PMS5003;35601;55.902;13.606;2023-04-03T05:53:06;3;3;
49708;PMS5003;35601;55.902;13.606;2023-04-03T05:55:31;3;3;
49708;PMS5003;35601;55.902;13.606;2023-04-03T05:57:56;5;4;
49708;PMS5003;35601;55.902;13.606;2023-04-03T06:00:22;2;2;
49708;PMS5003;35601;55.902;13.606;2023-04-03T06:02:49;4;3;
49708;PMS5003;35601;55.902;13.606;2023-04-03T06:05:13;1;1;
49708;PMS5003;35601;55.902;13.606;2023-04-03T06:07:38;4;3;
49708;PMS5003;35601;55.902;13.606;2023-04-03T06:10:04;1;1;
49708;PMS5003;35601;55.902;13.606;2023-04-03T06:12:29;4;2;
49708;PMS5003;35601;55.902;13.606;2023-04-03T06:14:54;2;1;
49708;PMS5003;35601;55.902;13.606;2023-04-03T06:17:20;2;2;
49708;PMS5003;35601;55.902;13.606;2023-04-03T06:19:45;4;2;
49708;PMS5003;35601;55.902;13.606;2023-04-03T06:22:10;2;2;
49708;PMS5003;35601;55.902;13.606;2023-04-03T06:24:36;3;1;
49708;PMS5003;35601;55.902;13.606;2023-04-03T06:27:02;2;1;
49708;PMS5003;35601;55.902;13.606;2023-04-03T06:29:27;2;1;
49708;PMS5003;35601;55.902;13.606;2023-04-03T06:31:52;1;1;
49708;PMS5003;35601;55.902;13.606;2023-04-03T06:34:17;4;3;
49708;PMS5003;35601;55.902;13.606;2023-04-03T06:36:43;4;2;
49708;PMS5003;35601;55.902;13.606;2023-04-03T06:39:08;4;3;
49708;PMS5003;35601;55.902;13.606;2023-04-03T06:41:33;3;2;
49708;PMS5003;35601;55.902;13.606;2023-04-03T06:43:59;3;3;
49708;PMS5003;35601;55.902;13.606;2023-04-03T06:46:25;1;1;
49708;PMS5003;35601;55.902;13.606;2023-04-03T06:48:50;2;2;
49708;PMS5003;35601;55.902;13.606;2023-04-03T06:51:17;2;2;
49708;PMS5003;35601;55.902;13.606;2023-04-03T06:53:40;1;1;
49708;PMS5003;35601;55.902;13.606;2023-04-03T06:56:06;3;2;
49708;PMS5003;35601;55.902;13.606;2023-04-03T06:58:31;5;3;
49708;PMS5003;35601;55.902;13.606;2023-04-03T07:00:56;3;2;
49708;PMS5003;35601;55.902;13.606;2023-04-03T07:03:22;4;2;
49708;PMS5003;35601;55.902;13.606;2023-04-03T07:05:47;2;1;
49708;PMS5003;35601;55.902;13.606;2023-04-03T07:08:12;3;2;
49708;PMS5003;35601;55.902;13.606;2023-04-03T07:10:38;3;3;
49708;PMS5003;35601;55.902;13.606;2023-04-03T07:13:03;4;3;
49708;PMS5003;35601;55.902;13.606;2023-04-03T07:15:29;3;3;
49708;PMS5003;35601;55.902;13.606;2023-04-03T07:17:54;7;3;
49708;PMS5003;35601;55.902;13.606;2023-04-03T07:20:19;4;3;
49708;PMS5003;35601;55.902;13.606;2023-04-03T07:22:45;4;3;
49708;PMS5003;35601;55.902;13.606;2023-04-03T07:25:10;3;1;
49708;PMS5003;35601;55.902;13.606;2023-04-03T07:27:35;2;1;
49708;PMS5003;35601;55.902;13.606;2023-04-03T07:30:01;3;2;
49708;PMS5003;35601;55.902;13.606;2023-04-03T07:32:26;1;1;
49708;PMS5003;35601;55.902;13.606;2023-04-03T07:34:52;1;1;
49708;PMS5003;35601;55.902;13.606;2023-04-03T07:37:17;1;1;
49708;PMS5003;35601;55.902;13.606;2023-04-03T07:39:43;3;1;
49708;PMS5003;35601;55.902;13.606;2023-04-03T07:42:08;3;3;
49708;PMS5003;35601;55.902;13.606;2023-04-03T07:44:34;1;1;
49708;PMS5003;35601;55.902;13.606;2023-04-03T07:46:59;4;4;
49708;PMS5003;35601;55.902;13.606;2023-04-03T07:49:24;3;2;
49708;PMS5003;35601;55.902;13.606;2023-04-03T07:51:50;4;3;
49708;PMS5003;35601;55.902;13.606;2023-04-03T07:54:15;0;0;
49708;PMS5003;35601;55.902;13.606;2023-04-03T07:56:40;1;1;
49708;PMS5003;35601;55.902;13.606;2023-04-03T07:59:06;3;2;
49708;PMS5003;35601;55.902;13.606;2023-04-03T08:01:31;1;1;
49708;PMS5003;35601;55.902;13.606;2023-04-03T08:03:56;2;2;
49708;PMS5003;35601;55.902;13.606;2023-04-03T08:06:22;2;2;
49708;PMS5003;35601;55.902;13.606;2023-04-03T08:08:47;2;2;
49708;PMS5003;35601;55.902;13.606;2023-04-03T08:11:12;1;1;
49708;PMS5003;35601;55.902;13.606;2023-04-03T08:13:38;2;2;
49708;PMS5003;35601;55.902;13.606;2023-04-03T08:16:09;2;2;
49708;PMS5003;35601;55.902;13.606;2023-04-03T08:18:28;2;1;
49708;PMS5003;35601;55.902;13.606;2023-04-03T08:20:54;1;1;
49708;PMS5003;35601;55.902;13.606;2023-04-03T08:23:19;1;0;
49708;PMS5003;35601;55.902;13.606;2023-04-03T08:25:45;1;1;
49708;PMS5003;35601;55.902;13.606;2023-04-03T08:28:11;2;2;
49708;PMS5003;35601;55.902;13.606;2023-04-03T08:30:35;1;1;
49708;PMS5003;35601;55.902;13.606;2023-04-03T08:33:01;2;0;
49708;PMS5003;35601;55.902;13.606;2023-04-03T08:35:26;1;1;
49708;PMS5003;35601;55.902;13.606;2023-04-03T08:37:51;2;1;
49708;PMS5003;35601;55.902;13.606;2023-04-03T08:40:17;1;1;
49708;PMS5003;35601;55.902;13.606;2023-04-03T08:42:46;1;1;
49708;PMS5003;35601;55.902;13.606;2023-04-03T08:45:08;1;1;
49708;PMS5003;35601;55.902;13.606;2023-04-03T08:47:35;0;0;
49708;PMS5003;35601;55.902;13.606;2023-04-03T08:50:00;4;1;
49708;PMS5003;35601;55.902;13.606;2023-04-03T08:52:26;0;0;
49708;PMS5003;35601;55.902;13.606;2023-04-03T08:54:50;1;0;
49708;PMS5003;35601;55.902;13.606;2023-04-03T08:57:14;0;0;
49708;PMS5003;35601;55.902;13.606;2023-04-03T08:59:39;1;1;
49708;PMS5003;35601;55.902;13.606;2023-04-03T09:04:31;0;0;
49708;PMS5003;35601;55.902;13.606;2023-04-03T09:06:57;0;0;
49708;PMS5003;35601;55.902;13.606;2023-04-03T09:09:27;0;0;
49708;PMS5003;35601;55.902;13.606;2023-04-03T09:11:48;1;1;
49708;PMS5003;35601;55.902;13.606;2023-04-03T09:14:13;0;0;
49708;PMS5003;35601;55.902;13.606;2023-04-03T09:16:39;1;1;
49708;PMS5003;35601;55.902;13.606;2023-04-03T09:19:05;0;0;
49708;PMS5003;35601;55.902;13.606;2023-04-03T09:21:29;3;1;
49708;PMS5003;35601;55.902;13.606;2023-04-03T09:23:53;0;0;
49708;PMS5003;35601;55.902;13.606;2023-04-03T09:26:19;0;0;
49708;PMS5003;35601;55.902;13.606;2023-04-03T09:28:43;3;1;
49708;PMS5003;35601;55.902;13.606;2023-04-03T09:31:14;0;0;
49708;PMS5003;35601;55.902;13.606;2023-04-03T09:33:35;0;0;
49708;PMS5003;35601;55.902;13.606;2023-04-03T09:35:59;0;0;
49708;PMS5003;35601;55.902;13.606;2023-04-03T09:38:25;0;0;
49708;PMS5003;35601;55.902;13.606;2023-04-03T09:40:51;1;1;
49708;PMS5003;35601;55.902;13.606;2023-04-03T09:43:20;2;0;
49708;PMS5003;35601;55.902;13.606;2023-04-03T09:45:42;1;0;
49708;PMS5003;35601;55.902;13.606;2023-04-03T09:48:07;1;1;
49708;PMS5003;35601;55.902;13.606;2023-04-03T09:50:31;0;0;
49708;PMS5003;35601;55.902;13.606;2023-04-03T09:52:56;0;0;
49708;PMS5003;35601;55.902;13.606;2023-04-03T09:55:22;0;0;
49708;PMS5003;35601;55.902;13.606;2023-04-03T09:57:48;0;0;
49708;PMS5003;35601;55.902;13.606;2023-04-03T10:02:38;1;1;
49708;PMS5003;35601;55.902;13.606;2023-04-03T10:05:04;1;1;
49708;PMS5003;35601;55.902;13.606;2023-04-03T10:07:30;0;0;
49708;PMS5003;35601;55.902;13.606;2023-04-03T10:09:55;0;0;
49708;PMS5003;35601;55.902;13.606;2023-04-03T10:12:20;3;0;
49708;PMS5003;35601;55.902;13.606;2023-04-03T10:17:14;2;1;
49708;PMS5003;35601;55.902;13.606;2023-04-03T10:19:36;2;1;
49708;PMS5003;35601;55.902;13.606;2023-04-03T10:22:02;1;1;
49708;PMS5003;35601;55.902;13.606;2023-04-03T10:24:27;0;0;
49708;PMS5003;35601;55.902;13.606;2023-04-03T10:26:52;2;2;
49708;PMS5003;35601;55.902;13.606;2023-04-03T10:29:20;0;0;
49708;PMS5003;35601;55.902;13.606;2023-04-03T10:31:42;1;1;
49708;PMS5003;35601;55.902;13.606;2023-04-03T10:34:06;0;0;
49708;PMS5003;35601;55.902;13.606;2023-04-03T10:36:34;3;0;
49708;PMS5003;35601;55.902;13.606;2023-04-03T10:38:59;1;1;
49708;PMS5003;35601;55.902;13.606;2023-04-03T10:41:24;1;1;
49708;PMS5003;35601;55.902;13.606;2023-04-03T10:43:50;0;0;
49708;PMS5003;35601;55.902;13.606;2023-04-03T10:46:14;2;0;
49708;PMS5003;35601;55.902;13.606;2023-04-03T10:48:40;1;1;
49708;PMS5003;35601;55.902;13.606;2023-04-03T10:51:08;0;0;
49708;PMS5003;35601;55.902;13.606;2023-04-03T10:53:29;0;0;
49708;PMS5003;35601;55.902;13.606;2023-04-03T10:55:55;1;1;
49708;PMS5003;35601;55.902;13.606;2023-04-03T10:58:20;0;0;
49708;PMS5003;35601;55.902;13.606;2023-04-03T11:00:45;0;0;
49708;PMS5003;35601;55.902;13.606;2023-04-03T11:03:11;0;0;
49708;PMS5003;35601;55.902;13.606;2023-04-03T11:05:36;0;0;
49708;PMS5003;35601;55.902;13.606;2023-04-03T11:08:03;0;0;
49708;PMS5003;35601;55.902;13.606;2023-04-03T11:10:26;1;1;
49708;PMS5003;35601;55.902;13.606;2023-04-03T11:12:51;0;0;
49708;PMS5003;35601;55.902;13.606;2023-04-03T11:15:17;0;0;
49708;PMS5003;35601;55.902;13.606;2023-04-03T11:17:41;1;0;
49708;PMS5003;35601;55.902;13.606;2023-04-03T11:20:08;1;1;
49708;PMS5003;35601;55.902;13.606;2023-04-03T11:22:32;0;0;
49708;PMS5003;35601;55.902;13.606;2023-04-03T11:24:58;0;0;
49708;PMS5003;35601;55.902;13.606;2023-04-03T11:27:22;1;1;
49708;PMS5003;35601;55.902;13.606;2023-04-03T11:29:47;1;1;
49708;PMS5003;35601;55.902;13.606;2023-04-03T11:32:20;0;0;
49708;PMS5003;35601;55.902;13.606;2023-04-03T11:34:38;0;0;
49708;PMS5003;35601;55.902;13.606;2023-04-03T11:37:05;0;0;
49708;PMS5003;35601;55.902;13.606;2023-04-03T11:39:29;0;0;
49708;PMS5003;35601;55.902;13.606;2023-04-03T11:41:54;1;1;
49708;PMS5003;35601;55.902;13.606;2023-04-03T11:46:49;0;0;
49708;PMS5003;35601;55.902;13.606;2023-04-03T11:49:13;1;1;
49708;PMS5003;35601;55.902;13.606;2023-04-03T11:51:38;2;0;
49708;PMS5003;35601;55.902;13.606;2023-04-03T11:56:28;0;0;
49708;PMS5003;35601;55.902;13.606;2023-04-03T12:08:43;1;0;
49708;PMS5003;35601;55.902;13.606;2023-04-03T12:13:21;0;0;
49708;PMS5003;35601;55.902;13.606;2023-04-03T12:15:48;1;1;
49708;PMS5003;35601;55.902;13.606;2023-04-03T12:23:07;1;0;
49708;PMS5003;35601;55.902;13.606;2023-04-03T12:27:53;0;0;
49708;PMS5003;35601;55.902;13.606;2023-04-03T12:30:20;1;1;
49708;PMS5003;35601;55.902;13.606;2023-04-03T12:32:48;2;1;
49708;PMS5003;35601;55.902;13.606;2023-04-03T12:35:19;1;1;
49708;PMS5003;35601;55.902;13.606;2023-04-03T12:37:39;2;0;
49708;PMS5003;35601;55.902;13.606;2023-04-03T12:40:01;2;1;
49708;PMS5003;35601;55.902;13.606;2023-04-03T12:42:30;0;0;
49708;PMS5003;35601;55.902;13.606;2023-04-03T12:44:52;1;1;
49708;PMS5003;35601;55.902;13.606;2023-04-03T12:47:22;0;0;
49708;PMS5003;35601;55.902;13.606;2023-04-03T12:49:41;0;0;
49708;PMS5003;35601;55.902;13.606;2023-04-03T12:52:06;1;1;
49708;PMS5003;35601;55.902;13.606;2023-04-03T12:54:32;1;1;
49708;PMS5003;35601;55.902;13.606;2023-04-03T12:59:22;1;0;
49708;PMS5003;35601;55.902;13.606;2023-04-03T13:04:12;0;0;
49708;PMS5003;35601;55.902;13.606;2023-04-03T13:06:38;0;0;
49708;PMS5003;35601;55.902;13.606;2023-04-03T13:09:03;1;1;
49708;PMS5003;35601;55.902;13.606;2023-04-03T13:11:30;1;1;
49708;PMS5003;35601;55.902;13.606;2023-04-03T13:13:54;2;2;
49708;PMS5003;35601;55.902;13.606;2023-04-03T13:16:18;1;1;
49708;PMS5003;35601;55.902;13.606;2023-04-03T13:18:43;0;0;
49708;PMS5003;35601;55.902;13.606;2023-04-03T13:21:11;0;0;
49708;PMS5003;35601;55.902;13.606;2023-04-03T13:23:35;1;1;
49708;PMS5003;35601;55.902;13.606;2023-04-03T13:25:59;3;2;
49708;PMS5003;35601;55.902;13.606;2023-04-03T13:28:24;1;1;
49708;PMS5003;35601;55.902;13.606;2023-04-03T13:31:07;1;1;
49708;PMS5003;35601;55.902;13.606;2023-04-03T13:33:19;0;0;
49708;PMS5003;35601;55.902;13.606;2023-04-03T13:35:40;1;1;
49708;PMS5003;35601;55.902;13.606;2023-04-03T13:38:19;1;0;
49708;PMS5003;35601;55.902;13.606;2023-04-03T13:40:31;1;0;
49708;PMS5003;35601;55.902;13.606;2023-04-03T13:43:00;1;0;
49708;PMS5003;35601;55.902;13.606;2023-04-03T13:45:22;2;0;
49708;PMS5003;35601;55.902;13.606;2023-04-03T13:47:47;2;1;
49708;PMS5003;35601;55.902;13.606;2023-04-03T13:50:14;0;0;
49708;PMS5003;35601;55.902;13.606;2023-04-03T13:52:40;1;1;
49708;PMS5003;35601;55.902;13.606;2023-04-03T13:55:03;0;0;
49708;PMS5003;35601;55.902;13.606;2023-04-03T13:57:29;1;0;
49708;PMS5003;35601;55.902;13.606;2023-04-03T13:59:53;0;0;
49708;PMS5003;35601;55.902;13.606;2023-04-03T14:02:19;2;2;
49708;PMS5003;35601;55.902;13.606;2023-04-03T14:04:47;1;1;
49708;PMS5003;35601;55.902;13.606;2023-04-03T14:07:09;1;1;
49708;PMS5003;35601;55.902;13.606;2023-04-03T14:09:34;1;1;
49708;PMS5003;35601;55.902;13.606;2023-04-03T14:12:00;1;1;
49708;PMS5003;35601;55.902;13.606;2023-04-03T14:14:26;2;1;
49708;PMS5003;35601;55.902;13.606;2023-04-03T14:16:51;1;1;
49708;PMS5003;35601;55.902;13.606;2023-04-03T14:19:18;0;0;
49708;PMS5003;35601;55.902;13.606;2023-04-03T14:21:42;1;1;
49708;PMS5003;35601;55.902;13.606;2023-04-03T14:24:06;1;1;
49708;PMS5003;35601;55.902;13.606;2023-04-03T14:26:31;0;0;
49708;PMS5003;35601;55.902;13.606;2023-04-03T14:28:56;0;0;
49708;PMS5003;35601;55.902;13.606;2023-04-03T14:31:22;0;0;
49708;PMS5003;35601;55.902;13.606;2023-04-03T14:33:47;1;1;
49708;PMS5003;35601;55.902;13.606;2023-04-03T14:36:13;3;1;
49708;PMS5003;35601;55.902;13.606;2023-04-03T14:38:38;1;1;
49708;PMS5003;35601;55.902;13.606;2023-04-03T14:41:03;1;1;
49708;PMS5003;35601;55.902;13.606;2023-04-03T14:43:28;2;1;
49708;PMS5003;35601;55.902;13.606;2023-04-03T14:45:53;1;1;
49708;PMS5003;35601;55.902;13.606;2023-04-03T14:48:20;1;0;
49708;PMS5003;35601;55.902;13.606;2023-04-03T14:50:44;1;1;
49708;PMS5003;35601;55.902;13.606;2023-04-03T14:53:09;1;1;
49708;PMS5003;35601;55.902;13.606;2023-04-03T14:55:34;0;0;
49708;PMS5003;35601;55.902;13.606;2023-04-03T14:58:00;0;0;
49708;PMS5003;35601;55.902;13.606;2023-04-03T15:00:25;1;0;
49708;PMS5003;35601;55.902;13.606;2023-04-03T15:02:52;1;1;
49708;PMS5003;35601;55.902;13.606;2023-04-03T15:05:16;1;1;
49708;PMS5003;35601;55.902;13.606;2023-04-03T15:07:42;0;0;
49708;PMS5003;35601;55.902;13.606;2023-04-03T15:12:31;3;1;
49708;PMS5003;35601;55.902;13.606;2023-04-03T15:14:57;0;0;
49708;PMS5003;35601;55.902;13.606;2023-04-03T15:17:22;4;3;
49708;PMS5003;35601;55.902;13.606;2023-04-03T15:19:47;3;1;
49708;PMS5003;35601;55.902;13.606;2023-04-03T15:22:13;1;1;
49708;PMS5003;35601;55.902;13.606;2023-04-03T15:24:38;2;1;
49708;PMS5003;35601;55.902;13.606;2023-04-03T15:27:03;3;3;
49708;PMS5003;35601;55.902;13.606;2023-04-03T15:29:29;0;0;
49708;PMS5003;35601;55.902;13.606;2023-04-03T15:31:54;1;0;
49708;PMS5003;35601;55.902;13.606;2023-04-03T15:34:19;1;1;
49708;PMS5003;35601;55.902;13.606;2023-04-03T15:36:44;0;0;
49708;PMS5003;35601;55.902;13.606;2023-04-03T15:39:10;0;0;
49708;PMS5003;35601;55.902;13.606;2023-04-03T15:41:35;1;1;
49708;PMS5003;35601;55.902;13.606;2023-04-03T15:44:00;1;1;
49708;PMS5003;35601;55.902;13.606;2023-04-03T15:46:26;1;1;
49708;PMS5003;35601;55.902;13.606;2023-04-03T15:48:51;1;0;
49708;PMS5003;35601;55.902;13.606;2023-04-03T15:51:16;2;2;
49708;PMS5003;35601;55.902;13.606;2023-04-03T15:53:41;0;0;
49708;PMS5003;35601;55.902;13.606;2023-04-03T15:56:07;0;0;
49708;PMS5003;35601;55.902;13.606;2023-04-03T15:58:32;2;2;
49708;PMS5003;35601;55.902;13.606;2023-04-03T16:00:58;4;4;
49708;PMS5003;35601;55.902;13.606;2023-04-03T16:03:23;1;1;
49708;PMS5003;35601;55.902;13.606;2023-04-03T16:05:49;2;2;
49708;PMS5003;35601;55.902;13.606;2023-04-03T16:08:14;2;1;
49708;PMS5003;35601;55.902;13.606;2023-04-03T16:10:39;2;1;
49708;PMS5003;35601;55.902;13.606;2023-04-03T16:13:06;1;1;
49708;PMS5003;35601;55.902;13.606;2023-04-03T16:15:30;2;2;
49708;PMS5003;35601;55.902;13.606;2023-04-03T16:17:56;3;1;
49708;PMS5003;35601;55.902;13.606;2023-04-03T16:20:22;3;2;
49708;PMS5003;35601;55.902;13.606;2023-04-03T16:22:46;0;0;
49708;PMS5003;35601;55.902;13.606;2023-04-03T16:25:12;1;1;
49708;PMS5003;35601;55.902;13.606;2023-04-03T16:27:37;1;1;
49708;PMS5003;35601;55.902;13.606;2023-04-03T16:30:02;1;1;
49708;PMS5003;35601;55.902;13.606;2023-04-03T16:32:28;2;1;
49708;PMS5003;35601;55.902;13.606;2023-04-03T16:34:52;0;0;
49708;PMS5003;35601;55.902;13.606;2023-04-03T16:37:18;4;3;
49708;PMS5003;35601;55.902;13.606;2023-04-03T16:39:43;2;2;
49708;PMS5003;35601;55.902;13.606;2023-04-03T16:42:08;2;2;
49708;PMS5003;35601;55.902;13.606;2023-04-03T16:44:34;0;0;
49708;PMS5003;35601;55.902;13.606;2023-04-03T16:46:59;4;3;
49708;PMS5003;35601;55.902;13.606;2023-04-03T16:49:24;5;2;
49708;PMS5003;35601;55.902;13.606;2023-04-03T16:51:50;3;3;
49708;PMS5003;35601;55.902;13.606;2023-04-03T16:54:15;4;4;
49708;PMS5003;35601;55.902;13.606;2023-04-03T16:56:40;3;3;
49708;PMS5003;35601;55.902;13.606;2023-04-03T16:59:06;2;2;
49708;PMS5003;35601;55.902;13.606;2023-04-03T17:01:31;2;2;